Dayton, OH (45435)

2:15 PM EDT on September 02, 2015 (GMT -0400)
Gardenview | | Change Station
CLOSE
Current Station
Personal Weather Station
Location: Dayton, OH
Elevation: 958 ft
Nearby Weather Stations

Elev 958 ft 39.76 °N, 84.08 °W | Updated 54 seconds ago

Mostly Cloudy
Mostly Cloudy
87.1 °F
Feels Like 94 °F
N
2.7
Wind Variable Wind from SSW

Today
High -- | Low -- °F
--% Chance of Precip.
Yesterday
High -- | Low -- °F
Precip. -- in
7:05 AM 8:06 PM
Waning Gibbous, 78% visible
Pressure 30.08 in
Visibility 0.5 miles
Clouds Mostly Cloudy 2300 ft
Overcast 2900 ft
Heat Index 94 °F
Dew Point 72 °F
Humidity 61%
Rainfall 0.00 in
Snow Depth Not available.
UV 3 out of 12
Pollen 10.40 out of 12
Air Quality Not available.
Flu Activity Not available.
SPECI KFFO 021809Z 18025G40KT 1/2SM R23R/P1600FT +TSRA BKN023 OVC029 26/21 A3008 RMK AO2A WSHFT 04 LTG DSNT S AND W
Pressure 30.08 in
Visibility 0.5 miles
Clouds Mostly Cloudy 2300 ft
Overcast 2900 ft
Heat Index 94 °F
Dew Point 72 °F
Humidity 61%
Rainfall 0.00 in
Snow Depth Not available.
UV 3 out of 12
Pollen 10.40 out of 12
Air Quality Not available.
Flu Activity Not available.
SPECI KFFO 021809Z 18025G40KT 1/2SM R23R/P1600FT +TSRA BKN023 OVC029 26/21 A3008 RMK AO2A WSHFT 04 LTG DSNT S AND W

10-Day Weather Forecast

×

Almanac

Astronomy

Sep. 02, 2015 Rise Set
Actual Time
Civil Twilight
Nautical Twilight
Astronomical Twilight
Moon
Length of Visible Light
Length of Day
Tomorrow will be .
, % of the Moon is Illuminated

Today's Extremes

State Highs State Lows

Community

WunderPhotos

Upload Photos

1,851,790 photos uploaded!

WunderBlogs® & News

Nearby

Air Quality

  Air Quality AQ Index Pollutant
Not available.

Snow Depth

Station Depth Elevation

Earthquake Activity

City Distance Mag. Time & Date
Minimum magnitude displayed is 2.5.

Coastal Water Temperatures

Place Temperature

Stations

Nearby Weather Stations

Station Location Temp. Windchill Dew Point Humidity Wind Precip. Elev Updated Type